sensor_id;sensor_type;location;lat;lon;timestamp;pressure;altitude;pressure_sealevel;temperature;humidity
56042;BME280;48756;41.374;2.066;2023-03-19T00:00:18;101072.22;;;14.01;91.31
56042;BME280;48756;41.374;2.066;2023-03-19T00:02:43;101073.81;;;14.09;90.93
56042;BME280;48756;41.374;2.066;2023-03-19T00:05:13;101072.19;;;14.02;90.60
56042;BME280;48756;41.374;2.066;2023-03-19T00:07:39;101078.22;;;14.07;91.93
56042;BME280;48756;41.374;2.066;2023-03-19T00:10:05;101077.56;;;13.95;92.01
56042;BME280;48756;41.374;2.066;2023-03-19T00:12:30;101078.31;;;14.01;92.18
56042;BME280;48756;41.374;2.066;2023-03-19T00:14:55;101080.13;;;13.98;90.91
56042;BME280;48756;41.374;2.066;2023-03-19T00:17:21;101073.44;;;13.82;91.70
56042;BME280;48756;41.374;2.066;2023-03-19T00:19:46;101082.16;;;13.82;91.06
56042;BME280;48756;41.374;2.066;2023-03-19T00:22:11;101084.91;;;13.74;91.38
56042;BME280;48756;41.374;2.066;2023-03-19T00:24:37;101085.91;;;13.67;91.30
56042;BME280;48756;41.374;2.066;2023-03-19T00:27:02;101091.34;;;13.54;89.40
56042;BME280;48756;41.374;2.066;2023-03-19T00:29:27;101093.94;;;13.55;90.87
56042;BME280;48756;41.374;2.066;2023-03-19T00:31:53;101097.47;;;13.53;90.68
56042;BME280;48756;41.374;2.066;2023-03-19T00:34:18;101101.06;;;13.47;90.49
56042;BME280;48756;41.374;2.066;2023-03-19T00:36:44;101095.06;;;13.40;89.77
56042;BME280;48756;41.374;2.066;2023-03-19T00:39:10;101096.75;;;13.44;89.64
56042;BME280;48756;41.374;2.066;2023-03-19T00:41:35;101101.63;;;13.66;89.05
56042;BME280;48756;41.374;2.066;2023-03-19T00:44:01;101099.91;;;13.65;88.17
56042;BME280;48756;41.374;2.066;2023-03-19T00:46:26;101109.31;;;13.76;87.74
56042;BME280;48756;41.374;2.066;2023-03-19T00:48:51;101120.94;;;13.60;85.59
56042;BME280;48756;41.374;2.066;2023-03-19T00:51:19;101115.91;;;13.46;89.08
56042;BME280;48756;41.374;2.066;2023-03-19T00:53:45;101122.56;;;13.67;86.52
56042;BME280;48756;41.374;2.066;2023-03-19T00:56:11;101129.59;;;13.65;88.82
56042;BME280;48756;41.374;2.066;2023-03-19T00:58:37;101125.88;;;13.77;87.03
56042;BME280;48756;41.374;2.066;2023-03-19T01:01:03;101131.97;;;13.79;87.67
56042;BME280;48756;41.374;2.066;2023-03-19T01:03:28;101130.09;;;13.87;86.91
56042;BME280;48756;41.374;2.066;2023-03-19T01:05:54;101131.88;;;13.85;86.00
56042;BME280;48756;41.374;2.066;2023-03-19T01:08:19;101142.09;;;13.45;88.30
56042;BME280;48756;41.374;2.066;2023-03-19T01:10:44;101147.50;;;13.36;89.21
56042;BME280;48756;41.374;2.066;2023-03-19T01:13:10;101147.50;;;13.36;88.79
56042;BME280;48756;41.374;2.066;2023-03-19T01:15:36;101152.16;;;13.09;91.26
56042;BME280;48756;41.374;2.066;2023-03-19T01:18:02;101148.44;;;13.29;90.93
56042;BME280;48756;41.374;2.066;2023-03-19T01:20:27;101148.28;;;13.41;89.74
56042;BME280;48756;41.374;2.066;2023-03-19T01:22:53;101151.59;;;13.52;89.26
56042;BME280;48756;41.374;2.066;2023-03-19T01:25:18;101153.34;;;13.52;89.15
56042;BME280;48756;41.374;2.066;2023-03-19T01:27:43;101152.47;;;13.51;90.29
56042;BME280;48756;41.374;2.066;2023-03-19T01:30:09;101146.25;;;13.60;89.59
56042;BME280;48756;41.374;2.066;2023-03-19T01:32:34;101150.59;;;13.61;88.63
56042;BME280;48756;41.374;2.066;2023-03-19T01:35:00;101140.09;;;13.62;88.40
56042;BME280;48756;41.374;2.066;2023-03-19T01:37:25;101145.25;;;13.68;88.65
56042;BME280;48756;41.374;2.066;2023-03-19T01:39:51;101139.13;;;13.69;88.90
56042;BME280;48756;41.374;2.066;2023-03-19T01:42:16;101143.34;;;13.78;87.93
56042;BME280;48756;41.374;2.066;2023-03-19T01:44:42;101149.41;;;13.80;88.23
56042;BME280;48756;41.374;2.066;2023-03-19T01:47:27;101146.84;;;13.77;89.09
56042;BME280;48756;41.374;2.066;2023-03-19T01:49:54;101142.44;;;13.79;90.49
56042;BME280;48756;41.374;2.066;2023-03-19T01:52:20;101143.13;;;13.92;88.83
56042;BME280;48756;41.374;2.066;2023-03-19T01:54:47;101144.72;;;14.00;89.17
56042;BME280;48756;41.374;2.066;2023-03-19T01:57:13;101149.91;;;14.03;88.50
56042;BME280;48756;41.374;2.066;2023-03-19T01:59:46;101155.97;;;14.07;87.82
56042;BME280;48756;41.374;2.066;2023-03-19T02:02:29;101149.84;;;14.08;88.42
56042;BME280;48756;41.374;2.066;2023-03-19T02:04:57;101149.81;;;14.09;87.96
56042;BME280;48756;41.374;2.066;2023-03-19T02:07:24;101152.41;;;14.11;88.68
56042;BME280;48756;41.374;2.066;2023-03-19T02:09:50;101151.59;;;14.07;88.23
56042;BME280;48756;41.374;2.066;2023-03-19T02:12:16;101143.81;;;14.01;88.93
56042;BME280;48756;41.374;2.066;2023-03-19T02:14:41;101153.38;;;14.05;88.49
56042;BME280;48756;41.374;2.066;2023-03-19T02:17:07;101151.59;;;14.07;87.84
56042;BME280;48756;41.374;2.066;2023-03-19T02:19:45;101152.47;;;14.06;87.74
56042;BME280;48756;41.374;2.066;2023-03-19T02:22:13;101149.91;;;14.02;88.07
56042;BME280;48756;41.374;2.066;2023-03-19T02:24:40;101149.84;;;14.08;87.95
56042;BME280;48756;41.374;2.066;2023-03-19T02:27:09;101146.47;;;14.00;88.09
56042;BME280;48756;41.374;2.066;2023-03-19T02:29:34;101149.03;;;14.04;88.00
56042;BME280;48756;41.374;2.066;2023-03-19T02:32:00;101149.19;;;13.94;88.89
56042;BME280;48756;41.374;2.066;2023-03-19T02:36:57;101150.06;;;13.94;89.23
56042;BME280;48756;41.374;2.066;2023-03-19T02:42:09;101140.44;;;13.95;89.34
56042;BME280;48756;41.374;2.066;2023-03-19T02:44:35;101142.09;;;14.00;89.15
56042;BME280;48756;41.374;2.066;2023-03-19T02:47:01;101148.16;;;14.04;89.06
56042;BME280;48756;41.374;2.066;2023-03-19T02:49:26;101140.84;;;14.21;87.65
56042;BME280;48756;41.374;2.066;2023-03-19T02:51:54;101146.81;;;14.31;87.84
56042;BME280;48756;41.374;2.066;2023-03-19T02:54:20;101144.09;;;14.35;88.06
56042;BME280;48756;41.374;2.066;2023-03-19T02:56:45;101149.47;;;14.29;87.96
56042;BME280;48756;41.374;2.066;2023-03-19T02:59:11;101147.06;;;14.16;88.82
56042;BME280;48756;41.374;2.066;2023-03-19T03:01:37;101150.38;;;14.27;88.14
56042;BME280;48756;41.374;2.066;2023-03-19T03:04:02;101144.28;;;14.26;87.96
56042;BME280;48756;41.374;2.066;2023-03-19T03:06:28;101149.41;;;14.32;89.17
56042;BME280;48756;41.374;2.066;2023-03-19T03:08:54;101154.47;;;14.41;87.65
56042;BME280;48756;41.374;2.066;2023-03-19T03:11:20;101155.72;;;14.21;88.19
56042;BME280;48756;41.374;2.066;2023-03-19T03:13:45;101154.13;;;14.12;89.60
56042;BME280;48756;41.374;2.066;2023-03-19T03:16:11;101156.47;;;14.29;89.62
56042;BME280;48756;41.374;2.066;2023-03-19T03:18:36;101153.66;;;14.38;89.02
56042;BME280;48756;41.374;2.066;2023-03-19T03:21:02;101150.22;;;14.34;88.50
56042;BME280;48756;41.374;2.066;2023-03-19T03:23:27;101147.66;;;14.33;88.99
56042;BME280;48756;41.374;2.066;2023-03-19T03:25:52;101152.09;;;14.29;88.46
56042;BME280;48756;41.374;2.066;2023-03-19T03:28:18;101146.78;;;14.32;88.25
56042;BME280;48756;41.374;2.066;2023-03-19T03:30:43;101148.47;;;14.35;88.95
56042;BME280;48756;41.374;2.066;2023-03-19T03:33:09;101143.16;;;14.38;87.74
56042;BME280;48756;41.374;2.066;2023-03-19T03:35:34;101154.47;;;14.41;88.03
56042;BME280;48756;41.374;2.066;2023-03-19T03:38:00;101154.47;;;14.43;87.88
56042;BME280;48756;41.374;2.066;2023-03-19T03:40:25;101151.06;;;14.36;88.12
56042;BME280;48756;41.374;2.066;2023-03-19T03:42:51;101151.19;;;14.30;88.43
56042;BME280;48756;41.374;2.066;2023-03-19T03:45:19;101157.25;;;14.32;88.93
56042;BME280;48756;41.374;2.066;2023-03-19T03:47:44;101162.56;;;14.29;88.58
56042;BME280;48756;41.374;2.066;2023-03-19T03:50:10;101162.13;;;14.03;89.88
56042;BME280;48756;41.374;2.066;2023-03-19T03:52:37;101165.59;;;14.06;89.55
56042;BME280;48756;41.374;2.066;2023-03-19T03:55:02;101169.00;;;14.10;90.70
56042;BME280;48756;41.374;2.066;2023-03-19T03:57:28;101174.94;;;14.20;89.63
56042;BME280;48756;41.374;2.066;2023-03-19T03:59:53;101173.13;;;14.23;89.99
56042;BME280;48756;41.374;2.066;2023-03-19T04:02:19;101170.69;;;14.14;89.59
56042;BME280;48756;41.374;2.066;2023-03-19T04:04:44;101168.75;;;14.24;89.30
56042;BME280;48756;41.374;2.066;2023-03-19T04:07:10;101177.44;;;14.29;89.53
56042;BME280;48756;41.374;2.066;2023-03-19T04:09:35;101175.69;;;14.29;89.74
56042;BME280;48756;41.374;2.066;2023-03-19T04:12:01;101179.81;;;14.41;89.04
56042;BME280;48756;41.374;2.066;2023-03-19T04:14:26;101179.75;;;14.46;88.53
56042;BME280;48756;41.374;2.066;2023-03-19T04:16:52;101178.34;;;14.26;88.16
56042;BME280;48756;41.374;2.066;2023-03-19T04:19:17;101188.34;;;14.04;89.86
56042;BME280;48756;41.374;2.066;2023-03-19T04:21:43;101186.22;;;14.26;89.56
56042;BME280;48756;41.374;2.066;2023-03-19T04:24:09;101185.06;;;14.41;88.38
56042;BME280;48756;41.374;2.066;2023-03-19T04:26:34;101181.50;;;14.47;88.49
56042;BME280;48756;41.374;2.066;2023-03-19T04:29:00;101192.09;;;14.39;88.81
56042;BME280;48756;41.374;2.066;2023-03-19T04:31:26;101185.88;;;14.46;88.52
56042;BME280;48756;41.374;2.066;2023-03-19T04:33:51;101193.75;;;14.45;88.35
56042;BME280;48756;41.374;2.066;2023-03-19T04:36:17;101198.94;;;14.48;88.42
56042;BME280;48756;41.374;2.066;2023-03-19T04:38:42;101200.47;;;14.61;88.27
56042;BME280;48756;41.374;2.066;2023-03-19T04:41:08;101199.78;;;14.51;87.62
56042;BME280;48756;41.374;2.066;2023-03-19T04:43:33;101204.88;;;14.59;87.60
56042;BME280;48756;41.374;2.066;2023-03-19T04:45:59;101206.66;;;14.57;87.48
56042;BME280;48756;41.374;2.066;2023-03-19T04:48:24;101206.66;;;14.57;87.15
56042;BME280;48756;41.374;2.066;2023-03-19T04:50:50;101213.75;;;14.52;87.92
56042;BME280;48756;41.374;2.066;2023-03-19T04:53:17;101210.53;;;14.34;87.16
56042;BME280;48756;41.374;2.066;2023-03-19T04:55:44;101214.88;;;13.83;88.79
56042;BME280;48756;41.374;2.066;2023-03-19T04:58:10;101223.31;;;14.00;87.99
56042;BME280;48756;41.374;2.066;2023-03-19T05:00:35;101218.34;;;13.84;88.94
56042;BME280;48756;41.374;2.066;2023-03-19T05:03:01;101227.75;;;13.97;88.09
56042;BME280;48756;41.374;2.066;2023-03-19T05:05:26;101230.34;;;13.98;88.00
56042;BME280;48756;41.374;2.066;2023-03-19T05:07:52;101231.75;;;14.19;86.31
56042;BME280;48756;41.374;2.066;2023-03-19T05:10:17;101235.41;;;14.10;85.79
56042;BME280;48756;41.374;2.066;2023-03-19T05:12:42;101238.88;;;14.11;85.83
56042;BME280;48756;41.374;2.066;2023-03-19T05:15:08;101248.38;;;14.18;84.89
56042;BME280;48756;41.374;2.066;2023-03-19T05:17:33;101244.28;;;14.00;86.78
56042;BME280;48756;41.374;2.066;2023-03-19T05:20:00;101244.06;;;14.14;86.03
56042;BME280;48756;41.374;2.066;2023-03-19T05:22:25;101250.19;;;14.15;87.40
56042;BME280;48756;41.374;2.066;2023-03-19T05:24:51;101245.69;;;14.21;85.70
56042;BME280;48756;41.374;2.066;2023-03-19T05:27:16;101249.09;;;14.28;86.01
56042;BME280;48756;41.374;2.066;2023-03-19T05:29:42;101252.59;;;14.28;85.12
56042;BME280;48756;41.374;2.066;2023-03-19T05:32:08;101252.59;;;14.28;85.63
56042;BME280;48756;41.374;2.066;2023-03-19T05:34:34;101261.47;;;14.18;85.61
56042;BME280;48756;41.374;2.066;2023-03-19T05:36:59;101264.63;;;14.38;86.39
56042;BME280;48756;41.374;2.066;2023-03-19T05:39:25;101268.25;;;14.31;85.67
56042;BME280;48756;41.374;2.066;2023-03-19T05:41:50;101267.47;;;14.25;86.43
56042;BME280;48756;41.374;2.066;2023-03-19T05:44:16;101275.28;;;14.29;85.70
56042;BME280;48756;41.374;2.066;2023-03-19T05:46:42;101274.50;;;14.23;86.48
56042;BME280;48756;41.374;2.066;2023-03-19T05:49:07;101270.97;;;14.24;86.58
56042;BME280;48756;41.374;2.066;2023-03-19T05:51:33;101278.56;;;14.44;85.26
56042;BME280;48756;41.374;2.066;2023-03-19T05:53:58;101284.94;;;14.27;86.49
56042;BME280;48756;41.374;2.066;2023-03-19T05:56:23;101290.16;;;14.29;85.97
56042;BME280;48756;41.374;2.066;2023-03-19T05:58:49;101289.22;;;14.31;85.79
56042;BME280;48756;41.374;2.066;2023-03-19T06:01:15;101293.34;;;14.49;85.06
56042;BME280;48756;41.374;2.066;2023-03-19T06:03:40;101291.81;;;14.85;84.05
56042;BME280;48756;41.374;2.066;2023-03-19T06:06:06;101304.78;;;14.93;83.36
56042;BME280;48756;41.374;2.066;2023-03-19T06:08:31;101308.59;;;14.77;83.76
56042;BME280;48756;41.374;2.066;2023-03-19T06:10:56;101309.56;;;14.73;84.35
56042;BME280;48756;41.374;2.066;2023-03-19T06:13:22;101321.63;;;14.27;86.49
56042;BME280;48756;41.374;2.066;2023-03-19T06:15:47;101324.19;;;14.32;86.49
56042;BME280;48756;41.374;2.066;2023-03-19T06:18:14;101328.44;;;14.37;86.91
56042;BME280;48756;41.374;2.066;2023-03-19T06:20:39;101336.22;;;14.45;87.01
56042;BME280;48756;41.374;2.066;2023-03-19T06:23:05;101339.69;;;14.49;86.89
56042;BME280;48756;41.374;2.066;2023-03-19T06:25:33;101341.56;;;14.37;87.13
56042;BME280;48756;41.374;2.066;2023-03-19T06:27:58;101352.97;;;14.35;87.15
56042;BME280;48756;41.374;2.066;2023-03-19T06:30:24;101360.59;;;14.53;87.73
56042;BME280;48756;41.374;2.066;2023-03-19T06:32:49;101354.44;;;14.56;86.72
56042;BME280;48756;41.374;2.066;2023-03-19T06:35:15;101359.47;;;14.66;86.63
56042;BME280;48756;41.374;2.066;2023-03-19T06:37:40;101357.63;;;14.75;86.38
56042;BME280;48756;41.374;2.066;2023-03-19T06:40:06;101362.84;;;14.76;87.10
56042;BME280;48756;41.374;2.066;2023-03-19T06:42:32;101365.25;;;14.87;86.04
56042;BME280;48756;41.374;2.066;2023-03-19T06:44:57;101371.53;;;14.78;86.24
56042;BME280;48756;41.374;2.066;2023-03-19T06:47:22;101375.84;;;14.82;85.55
56042;BME280;48756;41.374;2.066;2023-03-19T06:49:47;101381.84;;;14.89;85.26
56042;BME280;48756;41.374;2.066;2023-03-19T06:52:13;101387.19;;;14.84;85.38
56042;BME280;48756;41.374;2.066;2023-03-19T06:54:38;101395.97;;;14.82;85.52
56042;BME280;48756;41.374;2.066;2023-03-19T06:57:03;101397.66;;;14.86;84.85
56042;BME280;48756;41.374;2.066;2023-03-19T06:59:29;101400.59;;;14.66;85.66
56042;BME280;48756;41.374;2.066;2023-03-19T07:01:55;101401.34;;;14.74;86.50
56042;BME280;48756;41.374;2.066;2023-03-19T07:04:20;101406.09;;;14.48;85.94
56042;BME280;48756;41.374;2.066;2023-03-19T07:06:46;101403.38;;;14.57;87.02
56042;BME280;48756;41.374;2.066;2023-03-19T07:09:11;101403.91;;;14.79;85.76
56042;BME280;48756;41.374;2.066;2023-03-19T07:11:36;101398.34;;;14.97;85.42
56042;BME280;48756;41.374;2.066;2023-03-19T07:14:02;101403.56;;;14.98;84.94
56042;BME280;48756;41.374;2.066;2023-03-19T07:16:27;101408.84;;;14.97;84.68
56042;BME280;48756;41.374;2.066;2023-03-19T07:18:53;101414.50;;;14.73;85.67
56042;BME280;48756;41.374;2.066;2023-03-19T07:21:18;101414.34;;;14.82;84.64
56042;BME280;48756;41.374;2.066;2023-03-19T07:23:43;101419.59;;;14.80;85.96
56042;BME280;48756;41.374;2.066;2023-03-19T07:26:11;101419.41;;;14.94;85.60
56042;BME280;48756;41.374;2.066;2023-03-19T07:28:37;101428.72;;;15.10;85.11
56042;BME280;48756;41.374;2.066;2023-03-19T07:31:03;101419.78;;;15.22;84.09
56042;BME280;48756;41.374;2.066;2023-03-19T07:33:28;101424.34;;;15.11;83.45
56042;BME280;48756;41.374;2.066;2023-03-19T07:35:53;101420.75;;;15.15;83.01
56042;BME280;48756;41.374;2.066;2023-03-19T07:38:19;101419.81;;;15.20;84.65
56042;BME280;48756;41.374;2.066;2023-03-19T07:40:44;101417.34;;;15.11;84.71
56042;BME280;48756;41.374;2.066;2023-03-19T07:43:09;101417.25;;;15.17;83.28
56042;BME280;48756;41.374;2.066;2023-03-19T07:45:35;101432.31;;;15.05;84.25
56042;BME280;48756;41.374;2.066;2023-03-19T07:48:00;101436.06;;;14.90;83.76
56042;BME280;48756;41.374;2.066;2023-03-19T07:50:28;101434.13;;;15.02;83.32
56042;BME280;48756;41.374;2.066;2023-03-19T07:52:53;101437.66;;;15.00;83.22
56042;BME280;48756;41.374;2.066;2023-03-19T07:55:19;101436.47;;;15.19;82.99
56042;BME280;48756;41.374;2.066;2023-03-19T07:57:45;101440.88;;;15.17;82.80
56042;BME280;48756;41.374;2.066;2023-03-19T08:00:10;101448.47;;;15.32;83.18
56042;BME280;48756;41.374;2.066;2023-03-19T08:02:36;101451.03;;;15.36;82.33
56042;BME280;48756;41.374;2.066;2023-03-19T08:05:02;101457.13;;;15.39;82.97
56042;BME280;48756;41.374;2.066;2023-03-19T08:07:29;101456.00;;;15.52;81.93
56042;BME280;48756;41.374;2.066;2023-03-19T08:09:54;101454.03;;;15.67;81.71
56042;BME280;48756;41.374;2.066;2023-03-19T08:12:21;101457.50;;;15.67;80.71
56042;BME280;48756;41.374;2.066;2023-03-19T08:14:46;101460.00;;;15.73;80.81
56042;BME280;48756;41.374;2.066;2023-03-19T08:17:12;101465.31;;;15.70;79.76
56042;BME280;48756;41.374;2.066;2023-03-19T08:19:37;101458.69;;;15.96;80.22
56042;BME280;48756;41.374;2.066;2023-03-19T08:22:02;101465.97;;;15.81;80.11
56042;BME280;48756;41.374;2.066;2023-03-19T08:24:28;101468.16;;;16.04;78.68
56042;BME280;48756;41.374;2.066;2023-03-19T08:26:53;101470.31;;;15.84;79.32
56042;BME280;48756;41.374;2.066;2023-03-19T08:29:18;101469.13;;;16.00;79.38
56042;BME280;48756;41.374;2.066;2023-03-19T08:31:47;101462.78;;;16.10;77.45
56042;BME280;48756;41.374;2.066;2023-03-19T08:34:12;101473.97;;;16.20;76.43
56042;BME280;48756;41.374;2.066;2023-03-19T08:36:37;101478.00;;;16.36;76.62
56042;BME280;48756;41.374;2.066;2023-03-19T08:39:03;101484.50;;;16.60;74.97
56042;BME280;48756;41.374;2.066;2023-03-19T08:41:28;101477.00;;;16.82;72.82
56042;BME280;48756;41.374;2.066;2023-03-19T08:43:53;101481.69;;;16.69;71.18
56042;BME280;48756;41.374;2.066;2023-03-19T08:46:19;101484.69;;;16.51;71.20
56042;BME280;48756;41.374;2.066;2023-03-19T08:48:44;101487.31;;;16.51;70.97
56042;BME280;48756;41.374;2.066;2023-03-19T08:51:10;101496.66;;;16.66;71.16
56042;BME280;48756;41.374;2.066;2023-03-19T08:53:36;101499.41;;;17.00;69.95
56042;BME280;48756;41.374;2.066;2023-03-19T08:56:03;101502.28;;;17.26;67.39
56042;BME280;48756;41.374;2.066;2023-03-19T08:58:29;101505.59;;;16.97;68.79
56042;BME280;48756;41.374;2.066;2023-03-19T09:01:07;101505.22;;;16.77;68.92
56042;BME280;48756;41.374;2.066;2023-03-19T09:03:34;101504.09;;;16.45;69.97
56042;BME280;48756;41.374;2.066;2023-03-19T09:06:01;101497.38;;;17.11;67.77
56042;BME280;48756;41.374;2.066;2023-03-19T09:08:26;101505.88;;;16.85;67.57
56042;BME280;48756;41.374;2.066;2023-03-19T09:10:53;101497.16;;;16.83;67.65
56042;BME280;48756;41.374;2.066;2023-03-19T09:13:18;101499.75;;;17.22;66.25
56042;BME280;48756;41.374;2.066;2023-03-19T09:15:43;101503.19;;;17.25;65.05
56042;BME280;48756;41.374;2.066;2023-03-19T09:18:08;101500.66;;;17.21;64.32
56042;BME280;48756;41.374;2.066;2023-03-19T09:20:34;101508.28;;;17.31;65.75
56042;BME280;48756;41.374;2.066;2023-03-19T09:22:59;101512.06;;;17.20;64.50
56042;BME280;48756;41.374;2.066;2023-03-19T09:25:24;101513.22;;;16.71;65.44
56042;BME280;48756;41.374;2.066;2023-03-19T09:27:50;101515.66;;;16.80;65.92
56042;BME280;48756;41.374;2.066;2023-03-19T09:30:15;101510.34;;;16.83;65.67
56042;BME280;48756;41.374;2.066;2023-03-19T09:32:41;101514.31;;;17.01;64.33
56042;BME280;48756;41.374;2.066;2023-03-19T09:35:06;101520.44;;;17.01;64.23
56042;BME280;48756;41.374;2.066;2023-03-19T09:37:32;101515.91;;;17.42;63.30
56042;BME280;48756;41.374;2.066;2023-03-19T09:39:57;101517.06;;;17.32;61.72
56042;BME280;48756;41.374;2.066;2023-03-19T09:42:44;101516.56;;;17.52;60.95
56042;BME280;48756;41.374;2.066;2023-03-19T09:45:15;101517.22;;;17.26;61.49
56042;BME280;48756;41.374;2.066;2023-03-19T09:47:41;101516.81;;;16.67;63.77
56042;BME280;48756;41.374;2.066;2023-03-19T09:50:14;101513.13;;;17.12;62.14
56042;BME280;48756;41.374;2.066;2023-03-19T09:57:54;101514.63;;;18.23;58.22
56042;BME280;48756;41.374;2.066;2023-03-19T10:03:04;101513.22;;;17.79;59.24
56042;BME280;48756;41.374;2.066;2023-03-19T10:05:34;101509.63;;;18.44;58.21
56042;BME280;48756;41.374;2.066;2023-03-19T10:10:50;101504.03;;;19.12;53.98
56042;BME280;48756;41.374;2.066;2023-03-19T10:15:58;101511.69;;;18.34;57.62
56042;BME280;48756;41.374;2.066;2023-03-19T10:18:27;101509.34;;;18.23;57.33
56042;BME280;48756;41.374;2.066;2023-03-19T10:20:57;101512.03;;;18.51;56.36
56042;BME280;48756;41.374;2.066;2023-03-19T10:25:50;101515.47;;;17.59;57.63
56042;BME280;48756;41.374;2.066;2023-03-19T10:28:18;101515.00;;;18.10;57.20
56042;BME280;48756;41.374;2.066;2023-03-19T10:30:51;101511.41;;;19.02;54.87
56042;BME280;48756;41.374;2.066;2023-03-19T10:35:43;101509.94;;;18.92;54.47
56042;BME280;48756;41.374;2.066;2023-03-19T10:38:15;101511.06;;;18.85;54.12
56042;BME280;48756;41.374;2.066;2023-03-19T10:40:50;101500.03;;;18.98;53.56
56042;BME280;48756;41.374;2.066;2023-03-19T10:43:19;101508.78;;;19.01;54.13
56042;BME280;48756;41.374;2.066;2023-03-19T10:45:46;101507.44;;;19.93;52.15
56042;BME280;48756;41.374;2.066;2023-03-19T10:48:15;101510.56;;;19.79;50.57
56042;BME280;48756;41.374;2.066;2023-03-19T10:55:37;101502.56;;;19.30;50.57
56042;BME280;48756;41.374;2.066;2023-03-19T10:58:13;101507.56;;;19.11;50.82
56042;BME280;48756;41.374;2.066;2023-03-19T11:00:40;101510.91;;;19.42;50.23
56042;BME280;48756;41.374;2.066;2023-03-19T11:03:26;101508.13;;;19.20;50.40
56042;BME280;48756;41.374;2.066;2023-03-19T11:06:04;101514.56;;;18.56;52.07
56042;BME280;48756;41.374;2.066;2023-03-19T11:08:32;101511.13;;;19.10;51.10
56042;BME280;48756;41.374;2.066;2023-03-19T11:10:59;101504.88;;;19.65;49.70
56042;BME280;48756;41.374;2.066;2023-03-19T11:13:27;101500.16;;;20.70;47.15
56042;BME280;48756;41.374;2.066;2023-03-19T11:15:53;101502.22;;;20.15;47.99
56042;BME280;48756;41.374;2.066;2023-03-19T11:18:23;101495.38;;;20.56;47.38
56042;BME280;48756;41.374;2.066;2023-03-19T11:20:58;101493.91;;;20.01;48.23
56042;BME280;48756;41.374;2.066;2023-03-19T11:23:28;101487.16;;;20.17;48.38
56042;BME280;48756;41.374;2.066;2023-03-19T11:25:54;101490.38;;;20.25;47.85
56042;BME280;48756;41.374;2.066;2023-03-19T11:28:22;101487.66;;;20.03;48.10
56042;BME280;48756;41.374;2.066;2023-03-19T11:35:47;101489.53;;;21.14;46.97
56042;BME280;48756;41.374;2.066;2023-03-19T11:38:17;101486.88;;;20.48;48.33
56042;BME280;48756;41.374;2.066;2023-03-19T11:40:48;101485.13;;;20.00;48.92
56042;BME280;48756;41.374;2.066;2023-03-19T11:48:33;101491.88;;;20.99;48.71
56042;BME280;48756;41.374;2.066;2023-03-19T11:53:48;101488.44;;;21.19;47.23
56042;BME280;48756;41.374;2.066;2023-03-19T11:56:20;101486.22;;;20.65;48.51
56042;BME280;48756;41.374;2.066;2023-03-19T12:08:55;101475.19;;;20.97;48.67
56042;BME280;48756;41.374;2.066;2023-03-19T12:11:28;101476.63;;;20.84;49.10
56042;BME280;48756;41.374;2.066;2023-03-19T12:14:05;101469.84;;;20.99;49.18
56042;BME280;48756;41.374;2.066;2023-03-19T12:21:35;101471.66;;;20.53;50.35
56042;BME280;48756;41.374;2.066;2023-03-19T12:24:16;101465.53;;;20.96;48.21
56042;BME280;48756;41.374;2.066;2023-03-19T12:29:25;101458.16;;;21.03;47.76
56042;BME280;48756;41.374;2.066;2023-03-19T12:39:39;101441.16;;;21.30;46.49
56042;BME280;48756;41.374;2.066;2023-03-19T12:42:07;101441.97;;;21.92;44.23
56042;BME280;48756;41.374;2.066;2023-03-19T12:44:41;101439.41;;;21.50;44.99
56042;BME280;48756;41.374;2.066;2023-03-19T12:47:09;101441.44;;;21.23;45.77
56042;BME280;48756;41.374;2.066;2023-03-19T12:49:43;101448.66;;;20.77;45.54
56042;BME280;48756;41.374;2.066;2023-03-19T12:57:23;101447.16;;;20.25;49.00
56042;BME280;48756;41.374;2.066;2023-03-19T12:59:57;101447.66;;;20.79;48.09
56042;BME280;48756;41.374;2.066;2023-03-19T13:10:07;101414.38;;;21.57;45.83
56042;BME280;48756;41.374;2.066;2023-03-19T13:12:34;101417.41;;;21.27;45.97
56042;BME280;48756;41.374;2.066;2023-03-19T13:15:20;101417.00;;;20.74;47.26
56042;BME280;48756;41.374;2.066;2023-03-19T13:18:02;101413.13;;;21.25;46.49
56042;BME280;48756;41.374;2.066;2023-03-19T13:22:58;101414.53;;;21.12;46.41
56042;BME280;48756;41.374;2.066;2023-03-19T13:25:34;101407.66;;;21.48;45.02
56042;BME280;48756;41.374;2.066;2023-03-19T13:28:01;101407.03;;;21.43;46.70
56042;BME280;48756;41.374;2.066;2023-03-19T13:30:30;101397.94;;;21.49;46.30
56042;BME280;48756;41.374;2.066;2023-03-19T13:33:02;101405.94;;;21.27;45.17
56042;BME280;48756;41.374;2.066;2023-03-19T13:35:36;101400.56;;;20.44;45.90
56042;BME280;48756;41.374;2.066;2023-03-19T13:38:06;101397.50;;;20.31;47.52
56042;BME280;48756;41.374;2.066;2023-03-19T13:40:40;101399.81;;;21.04;46.52
56042;BME280;48756;41.374;2.066;2023-03-19T13:43:20;101402.34;;;20.65;47.03
56042;BME280;48756;41.374;2.066;2023-03-19T13:45:49;101398.81;;;21.29;46.13
56042;BME280;48756;41.374;2.066;2023-03-19T13:48:31;101409.09;;;20.05;47.72
56042;BME280;48756;41.374;2.066;2023-03-19T13:53:37;101397.97;;;20.86;48.98
56042;BME280;48756;41.374;2.066;2023-03-19T13:56:04;101392.00;;;20.36;48.03
56042;BME280;48756;41.374;2.066;2023-03-19T13:58:42;101406.84;;;20.85;46.44
56042;BME280;48756;41.374;2.066;2023-03-19T14:03:57;101399.50;;;21.12;46.59
56042;BME280;48756;41.374;2.066;2023-03-19T14:06:34;101392.78;;;21.25;46.77
56042;BME280;48756;41.374;2.066;2023-03-19T14:09:03;101395.53;;;20.80;48.80
56042;BME280;48756;41.374;2.066;2023-03-19T14:11:30;101382.09;;;21.27;46.83
56042;BME280;48756;41.374;2.066;2023-03-19T14:13:59;101385.88;;;20.79;47.55
56042;BME280;48756;41.374;2.066;2023-03-19T14:16:37;101382.72;;;20.91;48.50